.
WxDataArchive / Data Records for 2007-04-05
2007-04-04 April 2007 2007-04-06

Data Records for Thursday, 05 April 2007

Time	Temp	Chill	HIndex	Humid	Dewpt	 Wind 	HiWind	WindDir	Rain 	Barom 
-----	----	-----	------	-----	-----	------	------	-------	-----	----- 
00:00	29.1	29.1	29.1	66	19.2	2	5	270	0.00	29.986 
00:05	29.3	29.3	29.3	67	19.7	3	6	270	0.00	29.986 
00:10	29.3	29.3	29.3	67	19.7	3	10	270	0.00	29.985 
00:15	29.3	29.3	29.3	67	19.7	3	9	270	0.00	29.986 
00:20	29.3	29.3	29.3	67	19.7	3	11	270	0.00	29.988 
00:25	29.3	29.3	29.3	67	19.7	3	9	270	0.00	29.986 
00:30	29.3	29.3	29.3	66	19.4	3	10	270	0.00	29.986 
00:35	29.4	29.4	29.4	66	19.5	3	11	270	0.00	29.985 
00:40	29.4	29.4	29.4	65	19.1	3	9	270	0.00	29.985 
00:45	29.4	29.4	29.4	65	19.1	3	5	270	0.00	29.986 
00:50	29.4	29.4	29.4	65	19.1	3	6	270	0.00	29.984 
00:55	29.4	29.4	29.4	65	19.1	3	6	270	0.00	29.985 
01:00	29.4	25.1	29.4	65	19.1	4	10	270	0.00	29.986 
01:05	29.4	29.4	29.4	65	19.1	3	11	270	0.00	29.985 
01:10	29.4	29.4	29.4	65	19.1	3	9	270	0.00	29.985 
01:15	29.4	29.4	29.4	65	19.1	3	7	270	0.00	29.984 
01:20	29.4	29.4	29.4	65	19.1	3	7	270	0.00	29.985 
01:25	29.4	25.1	29.4	64	18.8	4	10	270	0.00	29.984 
01:30	29.4	29.4	29.4	64	18.8	3	6	270	0.00	29.984 
01:35	29.4	29.4	29.4	64	18.8	3	9	270	0.00	29.983 
01:40	29.4	29.4	29.4	64	18.8	3	7	270	0.00	29.984 
01:45	29.4	29.4	29.4	63	18.4	3	12	270	0.00	29.984 
01:50	29.4	29.4	29.4	64	18.8	3	6	270	0.00	29.983 
01:55	29.4	25.1	29.4	64	18.8	4	9	270	0.00	29.985 
02:00	29.4	24.0	29.4	64	18.8	5	12	270	0.00	29.984 
02:05	29.4	25.1	29.4	63	18.4	4	9	270	0.00	29.986 
02:10	29.4	29.4	29.4	64	18.8	3	9	270	0.00	29.985 
02:15	29.4	29.4	29.4	64	18.8	3	11	270	0.00	29.985 
02:20	29.3	29.3	29.3	65	19.0	3	7	270	0.00	29.985 
02:25	29.3	29.3	29.3	65	19.0	3	6	270	0.00	29.986 
02:30	29.1	24.7	29.1	65	18.8	4	10	270	0.00	29.986 
02:35	29.1	29.1	29.1	67	19.5	3	9	270	0.00	29.986 
02:40	29.0	29.0	29.0	67	19.4	3	6	270	0.00	29.986 
02:45	29.0	29.0	29.0	68	19.8	2	6	270	0.00	29.987 
02:50	29.0	29.0	29.0	67	19.4	3	6	270	0.00	29.987 
02:55	29.0	29.0	29.0	67	19.4	2	13	270	0.00	29.987 
03:00	29.0	29.0	29.0	67	19.4	2	6	270	0.00	29.986 
03:05	29.0	29.0	29.0	67	19.4	3	8	270	0.00	29.987 
03:10	28.8	28.8	28.8	68	19.6	2	7	270	0.00	29.986 
03:15	28.8	28.8	28.8	69	19.9	2	5	270	0.00	29.987 
03:20	28.5	28.5	28.5	70	20.0	3	9	270	0.00	29.987 
03:25	28.5	28.5	28.5	69	19.6	2	5	270	0.00	29.987 
03:30	28.7	28.7	28.7	69	19.8	3	7	292	0.00	29.986 
03:35	28.5	28.5	28.5	69	19.6	3	6	270	0.00	29.989 
03:40	28.5	28.5	28.5	71	20.3	3	7	270	0.00	29.988 
03:45	28.4	28.4	28.4	72	20.5	3	7	270	0.00	29.988 
03:50	28.4	28.4	28.4	71	20.2	3	10	270	0.00	29.988 
03:55	28.2	28.2	28.2	74	21.0	2	4	248	0.00	29.992 
04:00	27.8	27.8	27.8	79	22.2	2	4	270	0.00	29.998 
04:05	27.3	27.3	27.3	82	22.5	2	6	270	0.00	29.999 
04:10	27.2	27.2	27.2	82	22.4	2	5	270	0.00	30.002 
04:15	27.0	27.0	27.0	83	22.5	3	6	270	0.00	29.999 
04:20	27.0	27.0	27.0	82	22.3	2	5	248	0.00	29.999 
04:25	27.2	27.2	27.2	81	22.2	3	9	270	0.00	29.998 
04:30	27.2	27.2	27.2	79	21.6	2	5	270	0.00	30.001 
04:35	27.3	27.3	27.3	78	21.4	2	7	270	0.00	30.003 
04:40	27.2	27.2	27.2	78	21.3	3	6	270	0.00	30.004 
04:45	27.2	27.2	27.2	80	21.9	2	5	270	0.00	30.003 
04:50	27.0	27.0	27.0	79	21.4	3	10	270	0.00	30.002 
04:55	27.0	27.0	27.0	78	21.1	3	7	270	0.00	30.002 
05:00	27.0	27.0	27.0	77	20.8	2	4	315	0.00	30.004 
05:05	27.0	27.0	27.0	77	20.8	2	5	248	0.00	30.005 
05:10	27.0	27.0	27.0	78	21.1	3	6	270	0.00	30.007 
05:15	26.9	26.9	26.9	79	21.3	2	5	270	0.00	30.008 
05:20	26.7	26.7	26.7	79	21.1	1	4	270	0.00	30.007 
05:25	26.9	26.9	26.9	78	21.0	2	6	270	0.00	30.005 
05:30	27.0	27.0	27.0	77	20.8	2	6	315	0.00	30.008 
05:35	27.0	27.0	27.0	77	20.8	2	5	315	0.00	30.008 
05:40	26.9	26.9	26.9	78	21.0	2	7	315	0.00	30.008 
05:45	26.9	26.9	26.9	80	21.6	2	6	315	0.00	30.010 
05:50	26.7	26.7	26.7	81	21.7	1	3	315	0.00	30.012 
05:55	26.6	26.6	26.6	82	21.9	1	5	315	0.00	30.012 
06:00	26.4	26.4	26.4	83	22.0	1	3	270	0.00	30.015 
06:05	26.4	26.4	26.4	80	21.1	3	7	270	0.00	30.016 
06:10	26.4	26.4	26.4	80	21.1	1	4	248	0.00	30.017 
06:15	26.6	26.6	26.6	78	20.7	2	6	270	0.00	30.018 
06:20	26.6	26.6	26.6	76	20.1	3	6	270	0.00	30.021 
06:25	26.7	26.7	26.7	75	19.9	2	9	270	0.00	30.021 
06:30	26.7	26.7	26.7	74	19.5	3	7	270	0.00	30.021 
06:35	26.9	26.9	26.9	73	19.4	3	10	270	0.00	30.021 
06:40	26.9	26.9	26.9	73	19.4	1	4	270	0.00	30.022 
06:45	26.9	26.9	26.9	71	18.8	3	8	270	0.00	30.022 
06:50	27.0	27.0	27.0	69	18.2	3	7	270	0.00	30.023 
06:55	27.2	27.2	27.2	69	18.4	2	5	270	0.00	30.024 
07:00	27.2	27.2	27.2	69	18.4	2	5	270	0.00	30.024 
07:05	27.3	27.3	27.3	68	18.2	3	6	270	0.00	30.024 
07:10	27.3	27.3	27.3	67	17.8	3	7	270	0.00	30.026 
07:15	27.5	27.5	27.5	68	18.3	2	6	270	0.00	30.025 
07:20	27.5	22.9	27.5	67	18.0	4	12	270	0.00	30.026 
07:25	27.5	27.5	27.5	68	18.3	3	8	270	0.00	30.033 
07:30	27.5	22.9	27.5	68	18.3	4	12	270	0.00	30.035 
07:35	27.3	22.6	27.3	70	18.8	4	7	270	0.00	30.037 
07:40	27.2	22.5	27.2	71	19.1	4	11	270	0.00	30.037 
07:45	27.2	27.2	27.2	71	19.1	3	7	270	0.00	30.038 
07:50	27.2	27.2	27.2	72	19.4	3	6	270	0.00	30.038 
07:55	27.3	27.3	27.3	73	19.8	2	5	292	0.00	30.040 
08:00	27.5	27.5	27.5	73	20.0	3	6	270	0.00	30.041 
08:05	27.3	22.6	27.3	75	20.4	4	9	270	0.00	30.044 
08:10	26.9	26.9	26.9	77	20.7	3	6	270	0.00	30.043 
08:15	26.9	26.9	26.9	79	21.3	3	11	270	0.00	30.044 
08:20	26.9	26.9	26.9	79	21.3	3	6	270	0.00	30.046 
08:25	27.0	27.0	27.0	80	21.7	2	4	270	0.00	30.045 
08:30	27.0	27.0	27.0	80	21.7	3	7	270	0.00	30.047 
08:35	27.2	27.2	27.2	81	22.2	2	6	270	0.00	30.049 
08:40	27.3	27.3	27.3	81	22.3	2	5	270	0.00	30.048 
08:45	27.3	22.6	27.3	79	21.7	4	9	270	0.00	30.049 
08:50	27.5	27.5	27.5	79	21.9	3	6	270	0.00	30.049 
08:55	27.6	27.6	27.6	80	22.3	3	6	270	0.00	30.049 
09:00	27.8	27.8	27.8	78	21.8	3	12	270	0.00	30.050 
09:05	27.9	23.3	27.9	77	21.6	4	10	270	0.00	30.050 
09:10	28.2	28.2	28.2	75	21.3	3	6	270	0.00	30.050 
09:15	28.5	28.5	28.5	74	21.3	2	6	292	0.00	30.051 
09:20	28.8	28.8	28.8	71	20.6	3	7	270	0.00	30.050 
09:25	29.0	29.0	29.0	70	20.5	3	15	292	0.00	30.050 
09:30	29.3	25.0	29.3	67	19.7	4	7	270	0.00	30.049 
09:35	29.5	29.5	29.5	67	19.9	3	6	292	0.00	30.049 
09:40	29.5	25.2	29.5	65	19.2	4	8	270	0.00	30.051 
09:45	29.5	24.1	29.5	65	19.2	5	11	270	0.00	30.051 
09:50	29.7	29.7	29.7	67	20.1	3	6	270	0.00	30.050 
09:55	29.8	29.8	29.8	67	20.2	3	5	270	0.00	30.051 
10:00	29.8	25.5	29.8	65	19.5	4	7	270	0.00	30.052 
10:05	29.7	25.4	29.7	63	18.7	4	10	292	0.00	30.052 
10:10	29.5	25.2	29.5	62	18.1	4	9	315	0.00	30.056 
10:15	29.7	25.4	29.7	62	18.3	4	12	292	0.00	30.052 
10:20	29.7	25.4	29.7	63	18.7	4	9	270	0.00	30.051 
10:25	29.5	24.1	29.5	63	18.5	5	14	315	0.00	30.051 
10:30	29.4	24.0	29.4	63	18.4	5	13	292	0.00	30.053 
10:35	29.7	25.4	29.7	63	18.7	4	9	270	0.00	30.051 
10:40	30.1	25.9	30.1	63	19.0	4	12	270	0.00	30.051 
10:45	30.0	25.8	30.0	63	19.0	4	9	315	0.00	30.052 
10:50	30.1	30.1	30.1	63	19.0	3	10	315	0.00	30.051 
10:55	30.3	30.3	30.3	65	20.0	3	10	270	0.00	30.051 
11:00	30.4	26.2	30.4	63	19.3	4	7	270	0.00	30.051 
11:05	30.4	30.4	30.4	65	20.1	3	7	270	0.00	30.050 
11:10	30.1	25.9	30.1	65	19.8	4	14	270	0.00	30.051 
11:15	29.7	29.7	29.7	67	20.1	3	9	292	0.00	30.049 
11:20	30.4	30.4	30.4	69	21.5	3	9	315	0.00	30.048 
11:25	31.3	27.3	31.3	66	21.3	4	12	270	0.00	30.047 
11:30	31.2	27.2	31.2	66	21.2	4	7	270	0.00	30.047 
11:35	30.6	26.5	30.6	64	19.9	4	9	292	0.00	30.046 
11:40	30.6	30.6	30.6	64	19.9	3	11	270	0.00	30.044 
11:45	30.7	26.6	30.7	61	18.9	4	11	270	0.00	30.044 
11:50	30.9	26.8	30.9	61	19.1	4	9	270	0.00	30.045 
11:55	31.3	31.3	31.3	60	19.0	3	6	270	0.00	30.044 
12:00	31.8	27.8	31.8	57	18.3	4	9	315	0.00	30.039 
12:05	31.5	27.5	31.5	55	17.2	4	10	270	0.00	30.043 
12:10	31.3	31.3	31.3	57	17.9	3	9	338	0.00	30.041 
12:15	31.0	26.9	31.0	57	17.6	4	11	315	0.00	30.042 
12:20	30.7	26.6	30.7	57	17.3	4	9	270	0.00	30.042 
12:25	30.7	25.5	30.7	55	16.5	5	11	270	0.00	30.042 
12:30	31.3	26.3	31.3	56	17.4	5	10	292	0.00	30.040 
12:35	31.5	27.5	31.5	56	17.6	4	10	270	0.00	30.041 
12:40	31.9	28.0	31.9	56	18.0	4	9	270	0.00	30.036 
12:45	32.4	27.5	32.4	53	17.2	5	12	270	0.00	30.034 
12:50	32.1	28.2	32.1	55	17.8	4	10	270	0.00	30.035 
12:55	32.1	32.1	32.1	55	17.8	3	7	270	0.00	30.036 
13:00	32.5	28.7	32.5	54	17.7	4	13	270	0.00	30.035 
13:05	32.4	28.5	32.4	54	17.6	4	11	270	0.00	30.034 
13:10	31.9	28.0	31.9	55	17.6	4	10	270	0.00	30.037 
13:15	31.9	31.9	31.9	57	18.4	3	10	270	0.00	30.034 
13:20	32.1	32.1	32.1	54	17.4	3	11	315	0.00	30.036 
13:25	31.9	27.0	31.9	53	16.7	5	10	315	0.00	30.036 
13:30	32.9	29.1	32.9	53	17.7	4	11	270	0.00	30.032 
13:35	32.2	28.3	32.2	53	17.0	4	10	270	0.00	30.032 
13:40	31.8	27.8	31.8	55	17.5	4	10	270	0.00	30.034 
13:45	32.4	32.4	32.4	53	17.2	3	10	292	0.00	30.034 
13:50	32.1	27.2	32.1	54	17.4	5	12	338	0.00	30.035 
13:55	32.5	28.7	32.5	53	17.3	4	11	270	0.00	30.033 
14:00	32.4	32.4	32.4	53	17.2	3	7	292	0.00	30.032 
14:05	31.8	26.8	31.8	54	17.1	5	12	315	0.00	30.036 
14:10	31.5	26.5	31.5	56	17.6	5	13	270	0.00	30.035 
14:15	31.6	31.6	31.6	56	17.7	3	10	270	0.00	30.036 
14:20	31.5	27.5	31.5	54	16.8	4	13	315	0.00	30.035 
14:25	31.8	31.8	31.8	55	17.5	3	9	270	0.00	30.038 
14:30	31.8	26.8	31.8	54	17.1	5	11	270	0.00	30.037 
14:35	31.6	26.6	31.6	53	16.5	5	12	270	0.00	30.037 
14:40	31.3	27.3	31.3	55	17.0	4	7	292	0.00	30.039 
14:45	31.0	25.9	31.0	56	17.2	5	12	270	0.00	30.039 
14:50	31.3	27.3	31.3	56	17.4	4	10	270	0.00	30.038 
14:55	31.2	27.2	31.2	57	17.8	4	13	270	0.00	30.041 
15:00	31.2	31.2	31.2	57	17.8	3	10	270	0.00	30.036 
15:05	31.2	27.2	31.2	56	17.4	4	12	315	0.00	30.042 
15:10	31.0	26.9	31.0	56	17.2	4	11	270	0.00	30.039 
15:15	31.0	26.9	31.0	55	16.8	4	7	270	0.00	30.040 
15:20	31.0	26.9	31.0	56	17.2	4	10	270	0.00	30.040 
15:25	31.2	27.2	31.2	57	17.8	4	9	270	0.00	30.040 
15:30	30.9	26.8	30.9	54	16.2	4	9	315	0.00	30.041 
15:35	31.2	27.2	31.2	55	16.9	4	7	315	0.00	30.042 
15:40	30.9	26.8	30.9	56	17.1	4	10	315	0.00	30.045 
15:45	30.7	26.6	30.7	55	16.5	4	9	315	0.00	30.047 
15:50	30.9	30.9	30.9	58	17.9	3	7	338	0.00	30.044 
15:55	31.5	31.5	31.5	56	17.6	2	12	292	0.00	30.044 
16:00	31.2	31.2	31.2	56	17.4	3	10	315	0.00	30.045 
16:05	30.9	26.8	30.9	56	17.1	4	10	270	0.00	30.047 
16:10	30.9	30.9	30.9	57	17.5	3	9	292	0.00	30.048 
16:15	30.9	30.9	30.9	57	17.5	3	9	270	0.00	30.047 
16:20	30.9	30.9	30.9	57	17.5	3	12	270	0.00	30.048 
16:25	30.7	30.7	30.7	56	16.9	3	7	0	0.00	30.049 
16:30	30.9	26.8	30.9	56	17.1	4	11	338	0.00	30.047 
16:35	30.9	30.9	30.9	56	17.1	3	7	338	0.00	30.046 
16:40	30.9	26.8	30.9	56	17.1	4	10	338	0.00	30.047 
16:45	30.9	26.8	30.9	56	17.1	4	8	270	0.00	30.047 
16:50	30.9	26.8	30.9	56	17.1	4	11	270	0.00	30.046 
16:55	30.7	30.7	30.7	56	16.9	3	7	315	0.00	30.047 
17:00	30.9	30.9	30.9	57	17.5	2	6	292	0.00	30.048 
17:05	30.7	30.7	30.7	56	16.9	3	10	315	0.00	30.052 
17:10	30.6	30.6	30.6	57	17.2	3	6	315	0.00	30.052 
17:15	30.4	30.4	30.4	57	17.0	3	8	315	0.00	30.052 
17:20	30.4	30.4	30.4	57	17.0	2	6	0	0.00	30.052 
17:25	30.4	30.4	30.4	56	16.6	3	9	315	0.00	30.052 
17:30	30.4	30.4	30.4	57	17.0	2	7	315	0.00	30.052 
17:35	30.4	30.4	30.4	57	17.0	3	14	315	0.00	30.051 
17:40	30.4	30.4	30.4	56	16.6	2	10	338	0.00	30.051 
17:45	30.4	30.4	30.4	55	16.2	2	7	338	0.00	30.052 
17:50	30.4	30.4	30.4	55	16.2	3	9	338	0.00	30.052 
17:55	30.4	30.4	30.4	56	16.6	2	7	315	0.00	30.052 
18:00	30.3	30.3	30.3	55	16.1	3	6	315	0.00	30.053 
18:05	30.3	30.3	30.3	54	15.7	3	7	0	0.00	30.054 
18:10	30.3	30.3	30.3	55	16.1	3	10	315	0.00	30.053 
18:15	30.1	30.1	30.1	56	16.3	3	7	292	0.00	30.054 
18:20	30.1	30.1	30.1	57	16.7	2	4	315	0.00	30.053 
18:25	30.1	30.1	30.1	55	15.9	2	6	338	0.00	30.053 
18:30	30.1	30.1	30.1	55	15.9	2	7	0	0.00	30.054 
18:35	30.1	25.9	30.1	54	15.5	4	7	270	0.00	30.054 
18:40	30.1	30.1	30.1	55	15.9	3	6	292	0.00	30.054 
18:45	30.1	30.1	30.1	55	15.9	2	5	338	0.00	30.052 
18:50	30.0	30.0	30.0	56	16.2	2	5	315	0.00	30.054 
18:55	30.0	30.0	30.0	56	16.2	2	7	315	0.00	30.053 
19:00	30.0	30.0	30.0	56	16.2	2	6	0	0.00	30.053 
19:05	30.0	30.0	30.0	56	16.2	2	5	315	0.00	30.052 
19:10	30.0	30.0	30.0	56	16.2	1	4	338	0.00	30.052 
19:15	30.0	30.0	30.0	56	16.2	2	7	315	0.00	30.051 
19:20	30.0	30.0	30.0	56	16.2	3	6	338	0.00	30.052 
19:25	30.0	30.0	30.0	57	16.6	1	5	338	0.00	30.052 
19:30	30.0	30.0	30.0	56	16.2	2	9	315	0.00	30.052 
19:35	30.0	30.0	30.0	56	16.2	2	6	292	0.00	30.053 
19:40	30.0	30.0	30.0	55	15.8	2	6	292	0.00	30.052 
19:45	30.0	30.0	30.0	56	16.2	1	5	338	0.00	30.053 
19:50	29.8	29.8	29.8	56	16.0	1	3	338	0.00	30.053 
19:55	29.8	29.8	29.8	56	16.0	3	10	338	0.00	30.054 
20:00	29.8	29.8	29.8	55	15.6	2	6	292	0.00	30.053 
20:05	29.8	29.8	29.8	56	16.0	1	5	315	0.00	30.054 
20:10	29.7	29.7	29.7	57	16.4	2	9	338	0.00	30.053 
20:15	29.5	29.5	29.5	57	16.2	1	3	270	0.00	30.052 
20:20	29.4	29.4	29.4	58	16.5	1	4	292	0.00	30.054 
20:25	29.3	29.3	29.3	58	16.4	1	4	270	0.00	30.056 
20:30	29.3	29.3	29.3	58	16.4	1	3	270	0.00	30.056 
20:35	29.3	29.3	29.3	58	16.4	1	2	338	0.00	30.060 
20:40	29.1	29.1	29.1	59	16.6	1	3	315	0.00	30.061 
20:45	29.1	29.1	29.1	58	16.2	1	5	270	0.00	30.062 
20:50	29.0	29.0	29.0	59	16.5	1	6	270	0.00	30.064 
20:55	29.0	29.0	29.0	60	16.9	1	2	292	0.00	30.063 
21:00	29.0	29.0	29.0	60	16.9	1	3	292	0.00	30.064 
21:05	28.8	28.8	28.8	60	16.7	0	3	292	0.00	30.064 
21:10	28.7	28.7	28.7	60	16.6	1	3	270	0.00	30.065 
21:15	28.8	28.8	28.8	60	16.7	1	3	270	0.00	30.066 
21:20	29.0	29.0	29.0	60	16.9	1	3	0	0.00	30.064 
21:25	29.1	29.1	29.1	59	16.6	1	3	292	0.00	30.064 
21:30	29.1	29.1	29.1	59	16.6	1	2	270	0.00	30.064 
21:35	29.0	29.0	29.0	59	16.5	1	5	292	0.00	30.060 
21:40	29.0	29.0	29.0	59	16.5	0	2	248	0.00	30.059 
21:45	29.0	29.0	29.0	60	16.9	0	2	292	0.00	30.058 
21:50	29.0	29.0	29.0	60	16.9	0	2	315	0.00	30.056 
21:55	29.0	29.0	29.0	60	16.9	0	2	315	0.00	30.054 
22:00	29.1	29.1	29.1	60	17.0	1	3	270	0.00	30.053 
22:05	29.4	29.4	29.4	60	17.3	1	3	270	0.00	30.052 
22:10	29.4	29.4	29.4	59	16.9	1	3	270	0.00	30.051 
22:15	29.4	29.4	29.4	59	16.9	1	4	248	0.00	30.051 
22:20	29.4	29.4	29.4	59	16.9	1	3	248	0.00	30.051 
22:25	29.4	29.4	29.4	60	17.3	1	3	292	0.00	30.050 
22:30	29.4	29.4	29.4	59	16.9	1	3	270	0.00	30.049 
22:35	29.5	29.5	29.5	59	17.0	1	3	270	0.00	30.047 
22:40	29.5	29.5	29.5	59	17.0	0	2	270	0.00	30.045 
22:45	29.4	29.4	29.4	59	16.9	1	2	248	0.00	30.044 
22:50	29.3	29.3	29.3	60	17.2	1	2	248	0.00	30.043 
22:55	29.3	29.3	29.3	60	17.2	0	2	248	0.00	30.040 
23:00	29.3	29.3	29.3	59	16.8	1	4	270	0.00	30.037 
23:05	29.1	29.1	29.1	59	16.6	1	3	270	0.00	30.034 
23:10	29.0	29.0	29.0	59	16.5	1	2	270	0.00	30.035 
23:15	28.8	28.8	28.8	60	16.7	0	3	270	0.00	30.034 
23:20	28.7	28.7	28.7	60	16.6	0	2	270	0.00	30.033 
23:25	28.5	28.5	28.5	61	16.8	0	2	270	0.00	30.033 
23:30	28.4	28.4	28.4	61	16.7	0	1	270	0.00	30.030 
23:35	28.2	28.2	28.2	62	16.9	0	3	270	0.00	30.027 
23:40	28.1	28.1	28.1	62	16.8	0	1	248	0.00	30.025 
23:45	27.8	27.8	27.8	62	16.5	0	2	248	0.00	30.022 
23:50	27.8	27.8	27.8	63	16.9	0	2	248	0.00	30.020 
23:55	27.6	27.6	27.6	63	16.7	0	1	248	0.00	30.019 

CoCoRaHS
IN-AL-39
A2 Web Hosting
Creative Commons License
GoDaddy
Look for:

loaded 2017-12-12 15:03:27 • last modified 2010-11-18 10:43:29
Privacy PolicyDisclaimer
• wx.awcolley.com is powered by PmWiki v.2002016 •
• all content (unless otherwise noted) © 2017 A W Colley